Time;durP1;ratioP1;P1;durP2;ratioP2;P2;SDS_P1;SDS_P2;PMS_P1;PMS_P2;Temp;Humidity;BMP_temperature;BMP_pressure;BME280_temperature;BME280_humidity;BME280_pressure;Samples;Min_cycle;Max_cycle;Signal;HPM_P1;HPM_P2
2023/07/12 00:00:22;;;;;;;0.10;0.10;;;;;;;17.61;59.91;100102.09;7351457;19;20051;-62
2023/07/12 00:02:49;;;;;;;0.10;0.10;;;;;;;17.57;60.20;100116.44;7356421;19;20011;-62
2023/07/12 00:05:16;;;;;;;0.10;0.10;;;;;;;17.53;60.43;100114.91;7356132;19;20378;-59
2023/07/12 00:07:45;;;;;;;0.10;0.10;;;;;;;17.53;60.75;100101.72;7356457;19;20011;-59
2023/07/12 00:10:16;;;;;;;0.00;0.00;;;;;;;17.52;60.21;100110.59;7347791;19;20018;-58
2023/07/12 00:12:42;;;;;;;0.00;0.00;;;;;;;17.48;61.08;100103.78;7352475;19;20041;-58
2023/07/12 00:15:10;;;;;;;0.10;0.10;;;;;;;17.47;61.00;100104.72;7354503;19;20453;-58
2023/07/12 00:17:36;;;;;;;0.10;0.10;;;;;;;17.04;61.11;100044.00;7353611;19;20018;-59
2023/07/12 00:20:03;;;;;;;0.10;0.10;;;;;;;17.29;61.21;100091.72;7356349;19;20025;-58
2023/07/12 00:22:29;;;;;;;0.10;0.10;;;;;;;17.40;61.57;100106.91;7352267;19;20601;-59
2023/07/12 00:24:54;;;;;;;0.00;0.00;;;;;;;17.30;61.75;100096.06;7357627;19;20024;-59
2023/07/12 00:27:19;;;;;;;0.10;0.10;;;;;;;17.35;61.61;100107.19;7352135;19;20014;-59
2023/07/12 00:29:45;;;;;;;0.10;0.10;;;;;;;17.35;61.98;100117.72;7355243;19;20547;-58
2023/07/12 00:32:10;;;;;;;0.10;0.10;;;;;;;17.35;61.97;100109.81;7350657;19;20914;-59
2023/07/12 00:34:36;;;;;;;0.10;0.10;;;;;;;17.35;61.90;100101.91;7355256;19;20108;-58
2023/07/12 00:37:01;;;;;;;0.10;0.10;;;;;;;17.35;61.99;100107.19;7353302;19;20002;-59
2023/07/12 00:39:26;;;;;;;0.10;0.10;;;;;;;17.36;61.45;100103.59;7354201;19;20017;-58
2023/07/12 00:42:11;;;;;;;0.10;0.10;;;;;;;17.36;62.06;100105.38;7347571;19;19999;-59
2023/07/12 00:44:47;;;;;;;0.10;0.10;;;;;;;17.35;61.43;100106.34;7355021;19;20022;-59
2023/07/12 00:47:14;;;;;;;0.10;0.10;;;;;;;16.89;61.89;100031.72;7355246;19;20010;-59
2023/07/12 00:49:40;;;;;;;0.10;0.10;;;;;;;17.31;62.04;100089.81;7349287;19;20920;-59
2023/07/12 00:52:12;;;;;;;0.10;0.10;;;;;;;17.30;62.25;100097.84;7354611;19;20014;-58
2023/07/12 00:54:54;;;;;;;0.10;0.10;;;;;;;17.30;61.43;100097.84;7349780;19;21142;-58
2023/07/12 00:57:25;;;;;;;0.10;0.10;;;;;;;17.26;62.42;100102.44;7352297;19;20774;-59
2023/07/12 00:59:54;;;;;;;0.10;0.10;;;;;;;17.25;62.68;100090.19;7352413;19;20727;-59
2023/07/12 01:02:23;;;;;;;0.10;0.10;;;;;;;17.22;63.00;100093.00;7350976;19;20022;-59
2023/07/12 01:04:50;;;;;;;0.10;0.10;;;;;;;17.22;62.73;100089.53;7354740;19;20014;-59
2023/07/12 01:07:19;;;;;;;0.10;0.10;;;;;;;17.17;63.12;100083.69;7349102;19;20500;-59
2023/07/12 01:09:44;;;;;;;0.10;0.10;;;;;;;17.18;63.13;100088.00;7354059;19;20113;-59
2023/07/12 01:12:10;;;;;;;0.10;0.10;;;;;;;17.18;63.46;100088.84;7349592;19;20889;-59
2023/07/12 01:14:38;;;;;;;0.05;0.05;;;;;;;17.20;63.53;100092.25;7353524;19;20018;-58
2023/07/12 01:17:05;;;;;;;0.00;0.00;;;;;;;17.18;63.65;100088.84;7353811;19;20073;-59
2023/07/12 01:19:33;;;;;;;0.00;0.00;;;;;;;17.17;63.40;100092.44;7350110;19;20018;-59
2023/07/12 01:21:58;;;;;;;0.10;0.10;;;;;;;17.16;63.72;100090.75;7350917;19;20612;-58
2023/07/12 01:24:26;;;;;;;0.10;0.10;;;;;;;17.15;63.52;100094.31;7355376;19;20014;-58
2023/07/12 01:26:57;;;;;;;0.10;0.10;;;;;;;17.15;63.82;100099.59;7352982;19;20021;-59
2023/07/12 01:29:23;;;;;;;0.03;0.03;;;;;;;17.13;63.75;100096.19;7351046;19;20026;-58
2023/07/12 01:31:49;;;;;;;0.10;0.10;;;;;;;17.11;63.34;100095.44;7350838;19;20370;-58
2023/07/12 01:34:16;;;;;;;0.10;0.10;;;;;;;16.96;64.64;100083.16;7352519;19;20042;-59
2023/07/12 01:36:42;;;;;;;0.10;0.10;;;;;;;17.06;64.72;100100.16;7351654;19;20032;-60
2023/07/12 01:39:08;;;;;;;0.10;0.10;;;;;;;17.02;65.16;100101.25;7353847;19;20018;-60
2023/07/12 01:41:34;;;;;;;0.10;0.10;;;;;;;16.79;65.62;100087.66;7355731;19;20120;-59
2023/07/12 01:44:00;;;;;;;0.10;0.10;;;;;;;16.96;65.34;100099.00;7351725;19;20394;-59
2023/07/12 01:46:26;;;;;;;0.00;0.00;;;;;;;16.91;65.89;100101.03;7356048;19;20010;-59
2023/07/12 01:48:51;;;;;;;0.10;0.10;;;;;;;16.88;64.98;100109.13;7351857;19;20014;-59
2023/07/12 01:51:19;;;;;;;0.10;0.10;;;;;;;16.85;65.78;100112.81;7349916;19;20018;-59
2023/07/12 01:53:45;;;;;;;0.10;0.10;;;;;;;16.79;65.75;100103.47;7347313;19;20018;-58
2023/07/12 01:56:13;;;;;;;0.10;0.10;;;;;;;16.77;65.78;100113.22;7352196;19;20010;-58
2023/07/12 01:58:38;;;;;;;0.10;0.10;;;;;;;16.73;65.93;100119.66;7348895;19;20530;-58
2023/07/12 02:01:04;;;;;;;0.10;0.10;;;;;;;16.64;65.32;100112.22;7350627;19;20012;-58
2023/07/12 02:03:29;;;;;;;0.10;0.10;;;;;;;16.65;65.53;100121.81;7352227;19;20011;-59
2023/07/12 02:05:55;;;;;;;0.00;0.00;;;;;;;16.56;65.65;100103.88;7352937;19;20240;-58
2023/07/12 02:08:21;;;;;;;0.10;0.10;;;;;;;16.59;66.40;100114.28;7353201;19;20026;-60
2023/07/12 02:10:47;;;;;;;0.10;0.10;;;;;;;16.58;66.82;100105.53;7355043;19;20102;-58
2023/07/12 02:13:14;;;;;;;0.00;0.00;;;;;;;16.59;66.60;100106.38;7352677;19;20021;-59
2023/07/12 02:15:39;;;;;;;0.00;0.00;;;;;;;16.49;66.76;100084.94;7355122;19;20025;-59
2023/07/12 02:18:06;;;;;;;0.10;0.10;;;;;;;16.56;66.69;100102.09;7350387;19;20014;-58
2023/07/12 02:20:31;;;;;;;0.08;0.08;;;;;;;16.55;66.44;100100.41;7354502;19;20014;-58
2023/07/12 02:22:57;;;;;;;0.10;0.10;;;;;;;16.53;66.33;100097.03;7352839;19;21689;-58
2023/07/12 02:25:22;;;;;;;0.08;0.08;;;;;;;16.51;66.75;100108.56;7347995;19;21888;-59
2023/07/12 02:27:49;;;;;;;0.00;0.00;;;;;;;16.49;66.60;100107.81;7354574;19;20014;-59
2023/07/12 02:30:25;;;;;;;0.10;0.10;;;;;;;16.48;66.22;100109.63;7356335;19;20010;-59
2023/07/12 02:32:51;;;;;;;0.10;0.10;;;;;;;16.44;67.23;100096.69;7353860;19;20007;-59
2023/07/12 02:35:18;;;;;;;0.10;0.10;;;;;;;16.45;67.25;100107.13;7351375;19;20739;-59
2023/07/12 02:37:43;;;;;;;0.10;0.10;;;;;;;16.46;67.15;100107.97;7351510;19;20025;-59
2023/07/12 02:40:10;;;;;;;0.10;0.10;;;;;;;16.45;67.14;100099.22;7350143;19;20014;-59
2023/07/12 02:42:36;;;;;;;0.10;0.10;;;;;;;16.45;67.11;100099.22;7349488;19;20033;-58
2023/07/12 02:45:02;;;;;;;0.03;0.03;;;;;;;16.43;66.96;100095.84;7347903;19;20006;-59
2023/07/12 02:47:28;;;;;;;0.10;0.10;;;;;;;16.43;66.96;100101.13;7347846;19;20011;-59
2023/07/12 02:49:53;;;;;;;0.10;0.10;;;;;;;16.43;67.22;100105.53;7346311;19;20427;-58
2023/07/12 02:52:18;;;;;;;0.08;0.08;;;;;;;16.42;66.81;100114.34;7351656;19;20500;-59
2023/07/12 02:54:44;;;;;;;0.00;0.00;;;;;;;16.41;66.68;100107.41;7348635;19;20006;-59
2023/07/12 02:57:11;;;;;;;0.00;0.00;;;;;;;16.41;67.31;100107.41;7348708;19;20013;-59
2023/07/12 02:59:37;;;;;;;0.10;0.10;;;;;;;16.37;67.19;100101.44;7351664;19;20425;-59
2023/07/12 03:02:03;;;;;;;0.10;0.10;;;;;;;16.29;67.38;100083.44;7351765;19;20015;-59
2023/07/12 03:04:29;;;;;;;0.10;0.10;;;;;;;16.38;67.76;100102.31;7349666;19;20006;-58
2023/07/12 03:06:55;;;;;;;0.10;0.10;;;;;;;16.38;67.73;100102.31;7349666;19;20088;-58
2023/07/12 03:09:21;;;;;;;0.10;0.10;;;;;;;16.39;67.09;100104.00;7352103;19;20006;-59
2023/07/12 03:11:48;;;;;;;0.10;0.10;;;;;;;16.41;66.23;100108.25;7346393;19;20806;-59
2023/07/12 03:14:15;;;;;;;0.08;0.08;;;;;;;16.41;67.18;100107.41;7351906;19;20062;-59
2023/07/12 03:16:40;;;;;;;;;;;;;;;16.43;64.81;100110.81;7330142;19;20765;-59
2023/07/12 03:19:06;;;;;;;0.00;0.00;;;;;;;16.40;67.04;100105.69;7321794;19;20026;-59
2023/07/12 03:21:31;;;;;;;0.00;0.00;;;;;;;16.38;67.40;100113.72;7351088;19;20475;-59
2023/07/12 03:23:57;;;;;;;0.10;0.10;;;;;;;16.37;67.60;100113.75;7354841;19;20018;-58
2023/07/12 03:26:23;;;;;;;0.10;0.10;;;;;;;16.37;67.65;100108.50;7357354;19;20019;-59
2023/07/12 03:28:48;;;;;;;0.05;0.05;;;;;;;16.35;67.72;100103.31;7353062;19;20565;-59
2023/07/12 03:31:16;;;;;;;0.10;0.10;;;;;;;16.35;67.55;100109.44;7357055;19;20022;-59
2023/07/12 03:33:43;;;;;;;0.10;0.10;;;;;;;16.33;67.60;100099.94;7352105;19;20053;-57
2023/07/12 03:36:09;;;;;;;0.10;0.10;;;;;;;16.37;67.70;100111.13;7354834;19;20025;-59
2023/07/12 03:38:35;;;;;;;0.10;0.10;;;;;;;16.36;67.91;100107.66;7355635;19;20014;-59
2023/07/12 03:41:05;;;;;;;0.10;0.10;;;;;;;16.38;67.31;100097.03;7355108;19;20014;-59
2023/07/12 03:43:32;;;;;;;0.10;0.10;;;;;;;16.35;67.85;100091.00;7346463;19;20022;-59
2023/07/12 03:45:57;;;;;;;0.10;0.10;;;;;;;16.33;67.91;100100.78;7352668;19;20030;-58
2023/07/12 03:48:24;;;;;;;0.10;0.10;;;;;;;16.33;67.79;100103.41;7351467;19;20027;-59
2023/07/12 03:50:51;;;;;;;0.10;0.10;;;;;;;16.35;67.24;100095.41;7354263;19;20863;-59
2023/07/12 03:53:18;;;;;;;0.10;0.10;;;;;;;16.37;68.23;100097.97;7351016;19;20011;-59
2023/07/12 03:55:46;;;;;;;0.10;0.10;;;;;;;16.29;68.28;100088.72;7349732;19;20025;-58
2023/07/12 03:58:15;;;;;;;0.10;0.10;;;;;;;16.39;68.20;100102.22;7355193;19;20094;-59
2023/07/12 04:00:46;;;;;;;0.10;0.10;;;;;;;16.40;67.97;100096.00;7355855;19;20006;-58
2023/07/12 04:03:12;;;;;;;0.00;0.00;;;;;;;16.30;68.12;100074.59;7356535;19;20366;-59
2023/07/12 04:05:39;;;;;;;0.10;0.10;;;;;;;16.43;68.03;100095.00;7347068;19;20006;-59
2023/07/12 04:08:05;;;;;;;0.10;0.10;;;;;;;16.46;67.73;100094.81;7356395;19;20025;-59
2023/07/12 04:10:31;;;;;;;0.00;0.00;;;;;;;16.46;68.22;100090.38;7351009;19;20011;-59
2023/07/12 04:12:57;;;;;;;0.10;0.10;;;;;;;16.46;68.39;100090.38;7356711;19;20011;-59
2023/07/12 04:15:22;;;;;;;0.00;0.00;;;;;;;16.47;68.25;100093.88;7351183;19;20025;-59
2023/07/12 04:17:48;;;;;;;0.10;0.10;;;;;;;16.50;68.22;100096.34;7353792;19;20017;-59
2023/07/12 04:20:13;;;;;;;0.10;0.10;;;;;;;16.50;68.90;100091.06;7351046;19;20469;-59
2023/07/12 04:22:39;;;;;;;0.10;0.10;;;;;;;16.40;68.36;100079.34;7353015;19;20010;-59
2023/07/12 04:25:06;;;;;;;0.00;0.00;;;;;;;16.52;69.00;100091.81;7355724;19;20583;-59
2023/07/12 04:27:37;;;;;;;0.10;0.10;;;;;;;16.53;69.64;100098.81;7348379;19;20010;-59
2023/07/12 04:30:07;;;;;;;0.10;0.10;;;;;;;16.54;68.51;100088.16;7353423;19;20017;-59
2023/07/12 04:32:34;;;;;;;0.10;0.10;;;;;;;16.49;69.67;100097.28;7346823;19;20010;-59
2023/07/12 04:35:00;;;;;;;0.03;0.03;;;;;;;16.50;69.76;100091.06;7350169;19;20041;-59
2023/07/12 04:37:25;;;;;;;0.10;0.10;;;;;;;16.48;69.96;100098.22;7352423;19;20002;-60
2023/07/12 04:39:51;;;;;;;0.00;0.00;;;;;;;16.44;69.81;100094.91;7353402;19;20007;-60
2023/07/12 04:42:16;;;;;;;0.10;0.10;;;;;;;16.43;70.12;100095.84;7351821;19;20006;-59
2023/07/12 04:44:42;;;;;;;0.10;0.10;;;;;;;16.41;71.10;100094.22;7353900;19;20017;-58
2023/07/12 04:47:07;;;;;;;0.10;0.10;;;;;;;16.38;70.62;100097.91;7351901;19;20007;-60
2023/07/12 04:49:33;;;;;;;0.10;0.10;;;;;;;16.35;70.97;100098.91;7359229;19;20053;-59
2023/07/12 04:51:59;;;;;;;0.10;0.10;;;;;;;16.32;71.58;100101.72;7354038;19;20755;-60
2023/07/12 04:54:25;;;;;;;0.10;0.10;;;;;;;16.29;71.71;100088.72;7361792;19;20010;-60
2023/07/12 04:56:50;;;;;;;0.00;0.00;;;;;;;16.26;71.31;100103.84;7361960;19;20617;-60
2023/07/12 04:59:16;;;;;;;0.10;0.10;;;;;;;16.05;71.96;100064.56;7362024;19;20537;-60
2023/07/12 05:01:41;;;;;;;0.00;0.00;;;;;;;16.23;71.09;100104.88;7353978;19;20030;-59
2023/07/12 05:04:07;;;;;;;0.00;0.00;;;;;;;16.23;70.81;100101.38;7359071;19;20514;-59
2023/07/12 05:06:33;;;;;;;0.10;0.10;;;;;;;16.21;71.06;100095.34;7341616;19;20070;-59
2023/07/12 05:08:58;;;;;;;0.10;0.10;;;;;;;16.18;71.89;100099.00;7358933;19;20332;-59
2023/07/12 05:11:24;;;;;;;0.10;0.10;;;;;;;16.17;72.07;100106.97;7353889;19;20014;-60
2023/07/12 05:13:49;;;;;;;0.10;0.10;;;;;;;16.14;71.92;100108.00;7360116;19;20042;-59
2023/07/12 05:16:15;;;;;;;0.00;0.00;;;;;;;16.13;72.04;100106.31;7359932;19;20007;-58
2023/07/12 05:18:41;;;;;;;0.03;0.03;;;;;;;16.11;72.00;100108.16;7356375;19;20007;-60
2023/07/12 05:21:06;;;;;;;0.00;0.00;;;;;;;16.11;72.37;100109.94;7358155;19;20006;-59
2023/07/12 05:23:31;;;;;;;0.10;0.10;;;;;;;16.10;71.94;100109.09;7359211;19;20105;-59
2023/07/12 05:25:57;;;;;;;0.10;0.10;;;;;;;15.97;71.96;100089.66;7357466;19;20022;-59
2023/07/12 05:28:22;;;;;;;0.10;0.10;;;;;;;16.11;72.24;100104.69;7360517;19;20462;-59
2023/07/12 05:30:48;;;;;;;0.10;0.10;;;;;;;16.11;72.73;100113.44;7361410;19;20121;-58
2023/07/12 05:33:14;;;;;;;0.10;0.10;;;;;;;16.02;72.41;100103.44;7344835;19;20046;-59
2023/07/12 05:35:40;;;;;;;0.10;0.10;;;;;;;16.14;72.64;100121.19;7358919;19;20031;-59
2023/07/12 05:38:06;;;;;;;0.10;0.10;;;;;;;16.16;72.46;100123.72;7354571;19;20018;-59
2023/07/12 05:40:31;;;;;;;0.10;0.10;;;;;;;16.18;72.21;100122.72;7357128;19;20018;-58
2023/07/12 05:42:57;;;;;;;0.10;0.10;;;;;;;16.16;72.58;100118.44;7355982;19;20597;-58
2023/07/12 05:45:23;;;;;;;0.00;0.00;;;;;;;16.20;72.39;100114.72;7359217;19;20399;-57
2023/07/12 05:47:49;;;;;;;0.10;0.10;;;;;;;16.22;72.16;100124.25;7352923;19;20010;-59
2023/07/12 05:50:16;;;;;;;0.10;0.10;;;;;;;16.24;72.11;100116.25;7357299;19;20438;-59
2023/07/12 05:52:42;;;;;;;0.13;0.13;;;;;;;16.23;71.53;100120.69;7355094;19;20824;-59
2023/07/12 05:55:10;;;;;;;0.10;0.10;;;;;;;16.25;72.17;100129.34;7359415;19;20009;-58
2023/07/12 05:57:35;;;;;;;0.08;0.08;;;;;;;16.25;71.60;100129.34;7352283;19;20017;-60
2023/07/12 06:00:03;;;;;;;0.00;0.00;;;;;;;16.25;71.84;100139.88;7356923;19;20716;-60
2023/07/12 06:02:29;;;;;;;0.10;0.10;;;;;;;16.25;72.08;100134.59;7357387;19;20033;-58
2023/07/12 06:04:54;;;;;;;0.10;0.10;;;;;;;16.14;72.14;100126.44;7360445;19;20392;-59
2023/07/12 06:07:19;;;;;;;0.10;0.10;;;;;;;16.27;72.69;100143.28;7359532;19;20034;-59
2023/07/12 06:09:45;;;;;;;0.10;0.10;;;;;;;16.27;71.36;100153.81;7356315;19;20050;-59
2023/07/12 06:12:11;;;;;;;0.03;0.03;;;;;;;16.31;71.99;100149.22;7350450;19;20777;-59
2023/07/12 06:14:37;;;;;;;0.10;0.10;;;;;;;16.32;72.15;100151.78;7356596;19;20036;-59
2023/07/12 06:17:04;;;;;;;0.10;0.10;;;;;;;16.35;72.36;100154.22;7355383;19;20014;-58
2023/07/12 06:19:30;;;;;;;0.00;0.00;;;;;;;16.33;71.43;100142.09;7358294;19;20011;-59
2023/07/12 06:21:55;;;;;;;0.10;0.10;;;;;;;16.38;71.92;100157.66;7356186;19;20010;-58
2023/07/12 06:24:20;;;;;;;0.10;0.10;;;;;;;16.38;72.15;100155.03;7358614;19;20013;-59
2023/07/12 06:26:46;;;;;;;0.10;0.10;;;;;;;16.41;72.12;100154.84;7353555;19;20022;-59
2023/07/12 06:29:11;;;;;;;0.10;0.10;;;;;;;16.41;72.18;100149.56;7356543;19;20034;-59
2023/07/12 06:31:37;;;;;;;0.10;0.10;;;;;;;16.46;72.10;100152.78;7352671;19;20031;-59
2023/07/12 06:34:03;;;;;;;0.10;0.10;;;;;;;16.47;71.54;100155.31;7356506;19;20014;-58
2023/07/12 06:36:30;;;;;;;0.08;0.08;;;;;;;16.41;72.04;100144.28;7350027;19;20020;-59
2023/07/12 06:38:55;;;;;;;0.10;0.10;;;;;;;16.40;72.25;100142.59;7353393;19;20010;-58
2023/07/12 06:41:21;;;;;;;0.00;0.00;;;;;;;16.52;71.93;100160.34;7358909;19;20010;-59
2023/07/12 06:43:46;;;;;;;0.10;0.10;;;;;;;16.54;72.20;100166.41;7351032;19;21070;-59
2023/07/12 06:46:12;;;;;;;0.10;0.10;;;;;;;16.45;71.79;100159.00;7352907;19;20017;-58
2023/07/12 06:48:37;;;;;;;0.10;0.10;;;;;;;16.56;71.79;100175.06;7352944;19;20010;-59
2023/07/12 06:51:02;;;;;;;0.10;0.10;;;;;;;16.57;71.30;100168.84;7350257;19;20168;-59
2023/07/12 06:53:28;;;;;;;0.10;0.10;;;;;;;16.51;71.39;100161.28;7327086;19;20433;-59
2023/07/12 06:55:54;;;;;;;0.08;0.08;;;;;;;16.53;71.65;100167.34;7351398;19;20017;-58
2023/07/12 06:58:19;;;;;;;0.10;0.10;;;;;;;16.66;71.42;100183.31;7347397;19;20010;-59
2023/07/12 07:00:45;;;;;;;0.10;0.10;;;;;;;16.67;71.30;100188.50;7355680;19;20011;-59
2023/07/12 07:03:12;;;;;;;0.10;0.10;;;;;;;16.70;71.49;100188.31;7343837;19;20011;-58
2023/07/12 07:05:40;;;;;;;0.10;0.10;;;;;;;16.74;71.53;100192.53;7351156;19;20010;-59
2023/07/12 07:08:06;;;;;;;0.10;0.10;;;;;;;16.75;71.29;100186.31;7328114;19;20126;-59
2023/07/12 07:10:32;;;;;;;0.10;0.10;;;;;;;16.79;70.37;100190.47;7339520;19;20018;-58
2023/07/12 07:12:57;;;;;;;0.10;0.10;;;;;;;16.81;70.63;100188.59;7344341;19;20014;-59
2023/07/12 07:15:23;;;;;;;0.10;0.10;;;;;;;16.81;70.96;100191.22;7343886;19;20002;-58
2023/07/12 07:17:48;;;;;;;0.10;0.10;;;;;;;16.85;70.14;100198.03;7343647;19;20395;-58
2023/07/12 07:20:13;;;;;;;0.10;0.10;;;;;;;16.83;70.14;100199.94;7342277;19;20007;-59
2023/07/12 07:22:39;;;;;;;0.10;0.10;;;;;;;16.85;70.29;100192.75;7346690;19;20014;-58
2023/07/12 07:25:05;;;;;;;0.10;0.10;;;;;;;16.86;70.07;100199.72;7345666;19;20007;-59
2023/07/12 07:27:30;;;;;;;0.10;0.10;;;;;;;16.89;70.33;100200.50;7345603;19;20026;-59
2023/07/12 07:29:56;;;;;;;0.00;0.00;;;;;;;16.91;70.23;100207.38;7347773;19;20010;-59
2023/07/12 07:32:21;;;;;;;0.10;0.10;;;;;;;16.93;70.23;100210.81;7341133;19;20490;-59
2023/07/12 07:34:47;;;;;;;0.10;0.10;;;;;;;16.96;70.27;100209.75;7345235;19;20015;-59
2023/07/12 07:37:12;;;;;;;0.10;0.10;;;;;;;16.99;69.96;100214.88;7344017;19;20027;-58
2023/07/12 07:39:37;;;;;;;0.10;0.10;;;;;;;16.89;69.79;100192.59;7342011;19;20798;-58
2023/07/12 07:42:03;;;;;;;0.10;0.10;;;;;;;17.06;69.37;100219.69;7345150;19;20592;-58
2023/07/12 07:44:28;;;;;;;0.10;0.10;;;;;;;17.07;68.64;100231.09;7335494;19;21257;-59
2023/07/12 07:46:54;;;;;;;0.10;0.10;;;;;;;17.12;68.63;100229.06;7334028;19;20010;-59
2023/07/12 07:49:19;;;;;;;0.10;0.10;;;;;;;17.09;67.93;100226.59;7341839;19;20018;-59
2023/07/12 07:51:44;;;;;;;0.10;0.10;;;;;;;17.07;68.13;100213.47;7344528;19;20010;-58
2023/07/12 07:54:10;;;;;;;0.10;0.10;;;;;;;17.08;68.11;100214.31;7343611;19;20014;-58
2023/07/12 07:56:35;;;;;;;0.10;0.10;;;;;;;17.10;67.60;100217.75;7343182;19;20530;-59
2023/07/12 07:59:01;;;;;;;0.10;0.10;;;;;;;17.07;67.96;100217.91;7345519;19;20023;-59
2023/07/12 08:01:26;;;;;;;0.10;0.10;;;;;;;17.13;67.18;100217.56;7342870;19;20265;-59
2023/07/12 08:03:52;;;;;;;0.10;0.10;;;;;;;17.11;67.23;100209.75;7346611;19;20022;-56
2023/07/12 08:06:17;;;;;;;0.10;0.10;;;;;;;17.00;67.41;100196.31;7343692;19;20010;-60
2023/07/12 08:08:43;;;;;;;0.10;0.10;;;;;;;17.16;67.00;100214.75;7345067;19;20034;-59
2023/07/12 08:11:08;;;;;;;0.10;0.10;;;;;;;17.18;67.13;100219.94;7344723;19;20017;-59
2023/07/12 08:13:34;;;;;;;0.10;0.10;;;;;;;17.22;67.10;100227.59;7344314;19;20086;-59
2023/07/12 08:15:59;;;;;;;0.00;0.00;;;;;;;17.24;66.89;100230.16;7344017;19;20109;-59
2023/07/12 08:18:25;;;;;;;0.10;0.10;;;;;;;17.24;66.78;100220.44;7343877;19;20077;-58
2023/07/12 08:20:57;;;;;;;0.10;0.10;;;;;;;17.34;66.65;100237.44;7345396;19;20787;-59
2023/07/12 08:23:23;;;;;;;0.10;0.10;;;;;;;17.20;66.19;100218.91;7351593;19;20073;-59
2023/07/12 08:25:50;;;;;;;0.10;0.10;;;;;;;17.33;66.12;100246.28;7351028;19;20097;-59
2023/07/12 08:28:16;;;;;;;0.10;0.10;;;;;;;17.33;66.04;100240.16;7348429;19;20009;-58
2023/07/12 08:30:41;;;;;;;0.10;0.10;;;;;;;17.35;66.67;100254.13;7351602;19;20023;-58
2023/07/12 08:33:07;;;;;;;0.10;0.10;;;;;;;17.36;66.05;100246.13;7349448;19;20021;-59
2023/07/12 08:35:32;;;;;;;0.10;0.10;;;;;;;17.37;66.01;100245.16;7351722;19;20021;-59
2023/07/12 08:37:58;;;;;;;0.10;0.10;;;;;;;17.40;65.89;100253.88;7350072;19;20475;-59
2023/07/12 08:40:24;;;;;;;0.10;0.10;;;;;;;17.41;65.51;100263.47;7350990;19;20027;-58
2023/07/12 08:42:50;;;;;;;0.00;0.00;;;;;;;17.42;65.63;100259.91;7347923;19;20766;-59
2023/07/12 08:45:28;;;;;;;0.10;0.10;;;;;;;17.45;65.61;100249.16;7347648;19;20018;-59
2023/07/12 08:48:00;;;;;;;0.10;0.10;;;;;;;17.43;65.13;100254.50;7347359;19;20086;-58
2023/07/12 08:50:29;;;;;;;0.10;0.10;;;;;;;17.47;65.19;100247.28;7351011;19;20011;-58
2023/07/12 08:52:54;;;;;;;0.10;0.10;;;;;;;17.45;64.73;100265.84;7346238;19;20036;-58
2023/07/12 08:55:21;;;;;;;0.10;0.10;;;;;;;17.38;64.96;100254.78;7351789;19;20014;-59
2023/07/12 08:57:53;;;;;;;0.10;0.10;;;;;;;17.48;65.21;100267.44;7350431;19;20010;-58
2023/07/12 09:00:22;;;;;;;0.10;0.10;;;;;;;17.47;64.80;100271.03;7350001;19;20010;-59
2023/07/12 09:02:48;;;;;;;0.10;0.10;;;;;;;17.47;64.65;100268.41;7346989;19;20356;-58
2023/07/12 09:05:21;;;;;;;0.10;0.10;;;;;;;17.52;64.74;100276.91;7346837;19;20014;-58
2023/07/12 09:07:54;;;;;;;0.10;0.10;;;;;;;17.54;65.38;100280.31;7347364;19;20058;-59
2023/07/12 09:10:33;;;;;;;0.10;0.10;;;;;;;17.57;65.02;100273.03;7348225;19;20466;-59
2023/07/12 09:13:00;;;;;;;0.10;0.10;;;;;;;17.56;64.55;100270.50;7350153;19;20045;-59
2023/07/12 09:15:38;;;;;;;0.10;0.10;;;;;;;17.64;64.68;100276.19;7347080;19;20546;-57
2023/07/12 09:18:19;;;;;;;0.10;0.10;;;;;;;17.68;64.56;100277.69;7346429;19;20090;-59
2023/07/12 09:20:50;;;;;;;0.10;0.10;;;;;;;17.73;64.81;100273.03;7347618;19;20028;-58
2023/07/12 09:23:16;;;;;;;0.10;0.10;;;;;;;17.76;64.91;100267.56;7349962;19;21097;-58
2023/07/12 09:25:47;;;;;;;0.10;0.10;;;;;;;17.79;65.00;100275.31;7347189;19;20034;-59
2023/07/12 09:28:14;;;;;;;0.10;0.10;;;;;;;17.93;64.55;100260.44;7348623;19;20010;-58
2023/07/12 09:30:41;;;;;;;0.00;0.00;;;;;;;18.03;63.93;100258.94;7348006;19;20027;-58
2023/07/12 09:33:15;;;;;;;;;;;;;;;18.18;64.83;100262.44;7345554;19;20003;-59
2023/07/12 09:35:47;;;;;;;0.00;0.00;;;;;;;18.25;63.32;100266.38;7348076;19;19918;-59
2023/07/12 09:38:16;;;;;;;0.10;0.10;;;;;;;18.36;63.41;100263.94;7348914;19;20011;-59
2023/07/12 09:40:44;;;;;;;0.00;0.00;;;;;;;18.45;63.19;100267.78;7331445;19;20949;-59
2023/07/12 09:43:27;;;;;;;0.10;0.10;;;;;;;18.60;63.91;100266.84;7335061;19;20858;-58
2023/07/12 09:46:19;;;;;;;0.10;0.10;;;;;;;18.81;64.87;100265.53;7345324;19;20015;-59
2023/07/12 09:48:45;;;;;;;0.10;0.10;;;;;;;18.95;63.00;100271.72;7242438;19;2004224;-59
2023/07/12 09:51:49;;;;;;;0.10;0.10;;;;;;;19.23;63.81;100279.59;7346173;19;20015;-59
2023/07/12 09:54:34;;;;;;;0.10;0.10;;;;;;;19.37;62.60;100276.03;7244743;19;2004168;-59
2023/07/12 09:57:06;;;;;;;0.10;0.10;;;;;;;19.45;61.24;100273.72;7344739;19;20462;-59
2023/07/12 09:59:44;;;;;;;0.08;0.08;;;;;;;19.56;61.80;100273.00;7344277;19;20014;-58
2023/07/12 10:02:19;;;;;;;0.10;0.10;;;;;;;19.62;61.13;100283.22;7355405;19;20017;-58
2023/07/12 10:04:55;;;;;;;0.10;0.10;;;;;;;19.72;61.56;100270.19;7358558;19;20017;-59
2023/07/12 10:07:39;;;;;;;0.10;0.10;;;;;;;19.85;61.72;100282.50;7355070;19;20018;-59
2023/07/12 10:10:18;;;;;;;0.10;0.10;;;;;;;19.93;61.02;100288.16;7356945;19;20082;-59
2023/07/12 10:12:52;;;;;;;0.10;0.10;;;;;;;20.03;60.63;100284.88;7357142;19;20010;-59
2023/07/12 10:15:17;;;;;;;0.10;0.10;;;;;;;20.12;59.64;100278.91;7358262;19;20018;-60
2023/07/12 10:17:44;;;;;;;0.00;0.00;;;;;;;20.25;59.85;100287.72;7355873;19;20039;-59
2023/07/12 10:20:19;;;;;;;0.10;0.10;;;;;;;20.38;58.65;100288.59;7335690;19;20017;-59
2023/07/12 10:22:45;;;;;;;0.10;0.10;;;;;;;20.40;57.74;100291.97;7345298;19;20018;-59
2023/07/12 10:25:19;;;;;;;0.10;0.10;;;;;;;20.50;58.57;100301.97;7345412;19;20029;-59
2023/07/12 10:27:50;;;;;;;0.10;0.10;;;;;;;20.52;58.20;100305.34;7342469;19;20022;-59
2023/07/12 10:30:24;;;;;;;0.10;0.10;;;;;;;20.59;57.67;100306.63;7343683;19;20046;-59
2023/07/12 10:32:56;;;;;;;0.10;0.10;;;;;;;20.63;57.81;100308.09;7342377;19;20018;-58
2023/07/12 10:35:40;;;;;;;0.10;0.10;;;;;;;20.65;57.70;100311.50;7344378;19;20006;-59
2023/07/12 10:38:15;;;;;;;0.10;0.10;;;;;;;20.75;57.81;100324.97;7342964;19;20024;-59
2023/07/12 10:41:13;;;;;;;0.10;0.10;;;;;;;20.81;58.16;100327.16;7342747;19;20029;-59
2023/07/12 10:43:45;;;;;;;0.10;0.10;;;;;;;20.72;57.34;100313.59;7240398;19;2004560;-59
2023/07/12 10:46:33;;;;;;;0.10;0.10;;;;;;;20.82;58.33;100324.41;7343609;19;20018;-62
2023/07/12 10:49:03;;;;;;;0.10;0.10;;;;;;;20.84;57.84;100325.16;7341967;19;20517;-58
2023/07/12 10:51:39;;;;;;;0.10;0.10;;;;;;;20.91;56.91;100329.06;7341559;19;20021;-59
2023/07/12 10:54:25;;;;;;;0.10;0.10;;;;;;;20.98;56.23;100335.63;7343887;19;20006;-59
2023/07/12 10:56:53;;;;;;;0.10;0.10;;;;;;;21.09;55.49;100334.00;7341120;19;20081;-58
2023/07/12 10:59:28;;;;;;;0.10;0.10;;;;;;;21.22;56.75;100342.78;7341790;19;20437;-59
2023/07/12 11:01:55;;;;;;;0.10;0.10;;;;;;;21.29;55.28;100338.72;7341544;19;20106;-59
2023/07/12 11:04:29;;;;;;;0.10;0.10;;;;;;;21.42;55.37;100344.84;7344768;19;20034;-58
2023/07/12 11:06:57;;;;;;;0.03;0.03;;;;;;;21.50;54.97;100352.28;7343296;19;20027;-59
2023/07/12 11:09:23;;;;;;;0.10;0.10;;;;;;;21.67;55.21;100343.88;7343622;19;20086;-58
2023/07/12 11:12:05;;;;;;;0.10;0.10;;;;;;;21.87;56.04;100323.78;7344770;19;20547;-58
2023/07/12 11:14:41;;;;;;;0.10;0.10;;;;;;;22.38;56.50;100342.03;7342527;19;21425;-59
2023/07/12 11:17:06;;;;;;;0.10;0.10;;;;;;;22.74;53.21;100335.63;7344489;19;20030;-59
2023/07/12 11:19:40;;;;;;;0.10;0.10;;;;;;;23.23;52.70;100333.56;7344327;19;20018;-58
2023/07/12 11:22:20;;;;;;;0.10;0.10;;;;;;;23.80;52.48;100330.59;7343655;19;20965;-59
2023/07/12 11:25:35;;;;;;;0.10;0.10;;;;;;;24.49;55.53;100326.56;7344045;19;20590;-59
2023/07/12 11:28:20;;;;;;;0.10;0.10;;;;;;;24.83;49.92;100319.09;7238995;19;2004207;-59